Time;durP1;ratioP1;P1;durP2;ratioP2;P2;SDS_P1;SDS_P2;PMS_P1;PMS_P2;Temp;Humidity;BMP_temperature;BMP_pressure;BME280_temperature;BME280_humidity;BME280_pressure;Samples;Min_cycle;Max_cycle;Signal;HPM_P1;HPM_P2
2021/04/28 00:00:27;;;;;;;16.48;9.00;;;;;;;2.51;61.07;96519.78;1766427;79;21141;-55
2021/04/28 00:03:08;;;;;;;15.27;8.97;;;;;;;2.59;61.01;96516.92;1875656;75;22758;-55
2021/04/28 00:05:36;;;;;;;15.63;8.88;;;;;;;2.57;60.91;96518.27;1792867;79;21129;-55
2021/04/28 00:08:04;;;;;;;10.53;7.80;;;;;;;2.61;60.78;96516.86;1769396;79;21196;-55
2021/04/28 00:10:36;;;;;;;11.73;7.47;;;;;;;2.62;60.59;96514.70;1741646;82;21672;-57
2021/04/28 00:13:04;;;;;;;14.15;7.85;;;;;;;2.64;60.43;96513.72;1742296;82;21472;-56
2021/04/28 00:15:33;;;;;;;11.07;7.57;;;;;;;2.62;60.30;96510.86;1813263;79;21191;-55
2021/04/28 00:18:01;;;;;;;14.63;7.83;;;;;;;2.60;60.33;96506.22;1814370;79;21073;-56
2021/04/28 00:20:28;;;;;;;13.30;9.23;;;;;;;2.52;60.28;96505.27;1770164;80;21212;-56
2021/04/28 00:22:56;;;;;;;18.87;10.70;;;;;;;2.43;60.31;96503.88;1814465;79;21121;-55
2021/04/28 00:25:27;;;;;;;22.65;13.08;;;;;;;2.27;60.70;96506.66;1800652;79;21124;-55
2021/04/28 00:27:55;;;;;;;19.42;12.58;;;;;;;2.01;61.80;96508.05;1813850;78;21597;-56
2021/04/28 00:30:24;;;;;;;23.60;13.00;;;;;;;1.73;62.40;96507.42;1812529;79;26566;-55
2021/04/28 00:32:52;;;;;;;20.05;13.13;;;;;;;1.56;63.21;96502.47;1807968;78;21901;-56
2021/04/28 00:35:20;;;;;;;19.98;12.28;;;;;;;1.46;63.64;96503.67;1815246;79;21056;-56
2021/04/28 00:37:49;;;;;;;15.50;10.80;;;;;;;1.40;63.97;96507.30;1814876;79;21136;-56
2021/04/28 00:40:21;;;;;;;18.65;12.07;;;;;;;1.34;64.19;96504.95;1813501;79;21100;-56
2021/04/28 00:42:52;;;;;;;24.35;13.62;;;;;;;1.32;64.77;96503.34;1811468;79;21758;-56
2021/04/28 00:45:21;;;;;;;25.15;14.20;;;;;;;1.21;65.16;96505.81;1813229;79;21287;-56
2021/04/28 00:47:49;;;;;;;;;;;;;;;1.14;65.46;96503.55;1817677;79;21060;-56
2021/04/28 00:50:21;;;;;;;22.95;12.73;;;;;;;1.07;65.77;96506.30;1813341;78;20232;-56
2021/04/28 00:52:48;;;;;;;20.92;12.15;;;;;;;1.02;65.75;96510.73;1813064;79;21144;-56
2021/04/28 00:55:19;;;;;;;21.37;13.68;;;;;;;1.04;65.71;96499.19;1813077;78;21037;-56
2021/04/28 00:57:48;;;;;;;25.77;15.15;;;;;;;1.12;65.57;96498.91;1814841;78;21295;-56
2021/04/28 01:00:18;;;;;;;17.75;11.22;;;;;;;1.22;65.31;96498.55;1759813;79;21124;-56
2021/04/28 01:02:45;;;;;;;;;;;;;;;1.36;65.09;96492.11;1816845;78;21136;-55
2021/04/28 01:05:14;;;;;;;18.17;11.40;;;;;;;1.47;64.71;96497.68;1812435;78;20212;-56
2021/04/28 01:07:43;;;;;;;20.97;11.83;;;;;;;1.57;64.44;96495.63;1814193;77;21469;-55
2021/04/28 01:10:22;;;;;;;16.73;10.75;;;;;;;1.67;64.09;96489.28;1783082;79;21232;-55
2021/04/28 01:12:51;;;;;;;18.00;10.32;;;;;;;1.77;63.78;96496.17;1801258;79;21088;-56
2021/04/28 01:15:28;;;;;;;16.75;10.43;;;;;;;1.88;63.51;96498.34;1811036;79;21077;-55
2021/04/28 01:17:57;;;;;;;20.62;10.82;;;;;;;1.88;63.51;96498.34;1811708;79;21160;-55
2021/04/28 01:20:27;;;;;;;16.70;9.85;;;;;;;1.91;63.20;96494.36;1809266;78;21112;-55
2021/04/28 01:22:54;;;;;;;;;;;;;;;1.89;63.16;96493.17;1815000;79;21399;-56
2021/04/28 01:25:26;;;;;;;19.25;11.20;;;;;;;1.86;63.19;96492.42;1810272;78;20220;-56
2021/04/28 01:28:20;;;;;;;20.15;12.18;;;;;;;1.81;63.28;96488.78;1811918;78;21120;-55
2021/04/28 01:31:01;;;;;;;29.92;14.58;;;;;;;1.80;63.40;96485.83;1812119;79;21056;-57
2021/04/28 01:33:47;;;;;;;26.62;14.43;;;;;;;1.81;63.35;96486.23;1811903;79;21058;-55
2021/04/28 01:36:22;;;;;;;35.65;17.50;;;;;;;1.86;63.51;96486.89;1812812;78;21214;-56
2021/04/28 01:38:56;;;;;;;26.00;14.75;;;;;;;1.93;63.52;96482.37;1783495;79;21084;-56
2021/04/28 01:41:26;;;;;;;33.92;16.75;;;;;;;1.97;63.19;96478.36;1811463;79;21592;-57
2021/04/28 01:43:55;;;;;;;40.92;18.35;;;;;;;2.01;62.99;96472.67;1780167;79;21128;-55
2021/04/28 01:46:27;;;;;;;46.25;20.27;;;;;;;2.01;62.94;96476.06;1776923;79;21066;-56
2021/04/28 01:48:57;;;;;;;43.48;20.75;;;;;;;2.02;62.94;96473.90;1767374;80;21387;-54
2021/04/28 01:51:25;;;;;;;41.37;18.55;;;;;;;2.00;62.81;96467.98;1735649;82;21619;-54
2021/04/28 01:53:54;;;;;;;34.33;16.97;;;;;;;1.97;62.75;96469.83;1749881;81;21112;-55
2021/04/28 01:56:22;;;;;;;30.00;14.90;;;;;;;1.94;62.81;96466.95;1812614;79;21073;-55
2021/04/28 01:59:03;;;;;;;25.02;13.95;;;;;;;1.93;63.08;96466.56;1813238;79;21189;-55
2021/04/28 02:01:54;;;;;;;26.55;15.18;;;;;;;1.90;62.99;96466.67;1811633;78;21203;-55
2021/04/28 02:04:23;;;;;;;24.92;14.70;;;;;;;1.87;62.84;96462.13;1816246;78;21085;-55
2021/04/28 02:06:52;;;;;;;26.40;15.30;;;;;;;1.84;62.71;96454.11;1817103;78;21171;-55
2021/04/28 02:09:20;;;;;;;31.42;15.23;;;;;;;1.70;62.98;96453.81;1814837;78;21147;-55
2021/04/28 02:11:50;;;;;;;24.52;15.75;;;;;;;1.57;63.18;96457.27;1816932;78;21049;-56
2021/04/28 02:14:22;;;;;;;;;;;;;;;1.42;63.38;96454.38;1820447;78;22401;-55
2021/04/28 02:16:57;;;;;;;27.15;14.55;;;;;;;1.32;63.64;96450.95;1816492;78;21005;-55
2021/04/28 02:19:26;;;;;;;28.73;15.35;;;;;;;1.28;63.97;96445.94;1816355;78;26690;-55
2021/04/28 02:21:55;;;;;;;34.67;16.15;;;;;;;1.31;64.11;96443.70;1811079;78;21572;-56
2021/04/28 02:24:41;;;;;;;35.30;15.70;;;;;;;1.35;64.09;96444.41;1812667;78;21053;-55
2021/04/28 02:27:09;;;;;;;35.83;16.53;;;;;;;1.40;63.89;96446.39;1816036;78;21207;-55
2021/04/28 02:29:38;;;;;;;31.10;14.18;;;;;;;1.42;63.70;96444.14;1813636;78;21796;-55
2021/04/28 02:32:07;;;;;;;29.80;14.18;;;;;;;1.43;63.54;96436.88;1815004;78;21589;-55
2021/04/28 02:35:00;;;;;;;34.50;16.83;;;;;;;1.49;63.52;96435.80;1878853;76;22004;-56
2021/04/28 02:37:32;;;;;;;37.48;14.13;;;;;;;1.47;63.51;96442.70;1781242;78;21132;-56
2021/04/28 02:40:19;;;;;;;27.98;14.43;;;;;;;1.52;63.43;96436.15;1779502;79;21414;-55
2021/04/28 02:42:49;;;;;;;31.97;14.47;;;;;;;1.53;63.45;96442.48;1773050;80;21110;-56
2021/04/28 02:45:20;;;;;;;33.85;16.30;;;;;;;1.51;63.56;96440.41;1787596;80;21061;-55
2021/04/28 02:47:51;;;;;;;28.77;16.35;;;;;;;1.51;63.34;96437.85;1773811;80;21619;-55
2021/04/28 02:50:23;;;;;;;26.02;15.32;;;;;;;1.49;63.06;96440.09;1773574;79;21461;-55
2021/04/28 02:53:07;;;;;;;40.38;15.03;;;;;;;1.49;63.09;96438.81;1781598;80;21205;-55
2021/04/28 02:55:36;;;;;;;32.25;15.40;;;;;;;1.47;63.11;96435.03;1771336;80;21170;-55
2021/04/28 02:58:05;;;;;;;30.33;23.53;;;;;;;1.40;63.06;96434.88;1796392;78;21138;-55
2021/04/28 03:00:34;;;;;;;21.62;14.93;;;;;;;1.31;63.09;96433.92;1765448;78;21162;-55
2021/04/28 03:03:02;;;;;;;18.25;10.18;;;;;;;1.16;63.51;96437.41;1796414;79;21615;-55
2021/04/28 03:05:31;;;;;;;17.77;10.45;;;;;;;1.07;63.84;96434.75;1809359;78;21356;-56
2021/04/28 03:08:10;;;;;;;18.62;12.05;;;;;;;1.08;64.00;96438.95;1785095;80;21077;-56
2021/04/28 03:10:38;;;;;;;24.82;12.07;;;;;;;1.08;64.22;96441.96;1772085;80;21540;-55
2021/04/28 03:13:06;;;;;;;35.43;10.38;;;;;;;1.14;64.27;96434.09;1732567;81;21161;-55
2021/04/28 03:15:35;;;;;;;23.02;10.35;;;;;;;1.24;64.33;96433.31;1745341;81;21121;-55
2021/04/28 03:18:05;;;;;;;26.87;12.73;;;;;;;1.33;64.19;96441.09;1730864;83;21545;-56
2021/04/28 03:20:35;;;;;;;22.02;13.05;;;;;;;1.43;64.19;96436.02;1734637;81;21175;-55
2021/04/28 03:23:04;;;;;;;23.30;13.35;;;;;;;1.54;64.14;96437.74;1757991;80;21065;-55
2021/04/28 03:25:32;;;;;;;17.07;9.05;;;;;;;1.63;63.79;96434.86;1771676;80;21081;-55
2021/04/28 03:28:01;;;;;;;15.83;9.90;;;;;;;1.73;63.40;96434.52;1738761;81;21085;-56
2021/04/28 03:30:30;;;;;;;20.97;12.18;;;;;;;1.81;63.14;96438.44;1762520;80;21394;-54
2021/04/28 03:32:57;;;;;;;11.55;7.90;;;;;;;1.94;62.97;96441.80;1769671;80;21120;-53
2021/04/28 03:35:40;;;;;;;22.07;12.47;;;;;;;2.10;62.55;96430.52;1756850;81;21541;-54
2021/04/28 03:38:26;;;;;;;23.62;13.22;;;;;;;2.35;61.94;96437.62;1745508;81;21592;-54
2021/04/28 03:40:54;;;;;;;29.60;13.83;;;;;;;2.65;61.11;96438.55;1758794;81;21156;-54
2021/04/28 03:43:22;;;;;;;28.50;17.05;;;;;;;2.89;60.39;96437.12;1762975;81;21219;-54
2021/04/28 03:45:53;;;;;;;27.62;17.10;;;;;;;3.15;59.68;96441.14;1759951;81;21148;-53
2021/04/28 03:48:23;;;;;;;26.45;16.77;;;;;;;3.39;59.07;96435.82;1743232;81;21685;-55
2021/04/28 03:50:50;;;;;;;28.17;16.57;;;;;;;4.10;57.52;96448.85;1745406;81;21501;-55
2021/04/28 03:53:18;;;;;;;24.00;16.15;;;;;;;4.10;57.52;96448.85;1761089;81;21472;-55
2021/04/28 03:55:47;;;;;;;24.20;15.55;;;;;;;4.62;56.53;96354.27;1738228;81;22143;-54
2021/04/28 03:58:15;;;;;;;26.17;15.63;;;;;;;5.14;55.20;96439.03;1763975;81;21132;-55
2021/04/28 04:00:43;;;;;;;32.88;17.73;;;;;;;5.59;53.91;96441.04;1743068;81;21835;-55
2021/04/28 04:03:26;;;;;;;29.47;17.20;;;;;;;6.14;52.86;96447.58;1861106;75;25579;-55
2021/04/28 04:05:59;;;;;;;53.33;17.50;;;;;;;6.52;51.72;96448.47;1747440;78;21110;-55
2021/04/28 04:08:37;;;;;;;62.60;16.42;;;;;;;6.98;50.70;96446.64;1851757;76;21372;-55
2021/04/28 04:11:08;;;;;;;56.35;16.85;;;;;;;7.42;49.51;96448.81;1867290;76;20934;-55
2021/04/28 04:13:38;;;;;;;30.23;13.38;;;;;;;7.76;48.41;96445.92;1847287;76;21537;-55
2021/04/28 04:16:07;;;;;;;;;;;;;;;8.00;47.34;96444.88;1850404;76;21120;-55
2021/04/28 04:18:36;;;;;;;48.17;14.18;;;;;;;8.28;46.91;96454.30;1808581;76;20294;-55
2021/04/28 04:21:07;;;;;;;51.42;12.03;;;;;;;8.59;46.39;96454.48;1852762;77;21252;-55
2021/04/28 04:23:36;;;;;;;54.08;11.35;;;;;;;8.94;45.56;96451.34;1879250;75;21170;-55
2021/04/28 04:26:22;;;;;;;36.23;10.70;;;;;;;9.38;44.89;96457.89;1864664;76;21041;-55
2021/04/28 04:29:03;;;;;;;45.65;12.28;;;;;;;9.91;43.67;96447.83;1854070;77;21474;-54
2021/04/28 04:31:46;;;;;;;46.53;12.55;;;;;;;10.40;42.65;96456.52;1880209;76;28548;-55
2021/04/28 04:34:32;;;;;;;44.80;12.98;;;;;;;10.72;41.81;96450.27;1847798;77;21608;-55
2021/04/28 04:37:18;;;;;;;36.40;13.30;;;;;;;11.05;41.33;96456.05;1836134;77;21361;-55
2021/04/28 04:39:58;;;;;;;29.07;14.55;;;;;;;11.40;40.53;96455.16;1779176;80;21137;-55
2021/04/28 04:42:27;;;;;;;28.55;14.30;;;;;;;11.67;39.76;96449.27;1782151;79;21026;-55
2021/04/28 04:44:56;;;;;;;27.55;12.05;;;;;;;12.04;39.04;96447.71;1780657;79;21176;-56
2021/04/28 04:47:24;;;;;;;18.05;10.55;;;;;;;12.45;38.28;96447.49;1774244;80;21034;-56
2021/04/28 04:49:52;;;;;;;20.70;8.53;;;;;;;12.83;37.67;96448.80;1771795;79;21379;-56
2021/04/28 04:52:20;;;;;;;16.05;7.97;;;;;;;13.20;37.00;96441.83;1771781;81;21022;-56
2021/04/28 04:54:49;;;;;;;17.45;7.97;;;;;;;13.60;36.40;96443.70;1788288;80;20975;-55
2021/04/28 04:57:17;;;;;;;13.58;7.05;;;;;;;13.94;35.68;96444.73;1789914;80;21220;-55
2021/04/28 04:59:44;;;;;;;12.70;8.03;;;;;;;14.31;35.40;96451.97;1774584;80;21073;-54
2021/04/28 05:02:12;;;;;;;11.03;8.10;;;;;;;14.61;34.93;96442.41;1786509;80;21386;-55
2021/04/28 05:04:39;;;;;;;28.30;8.43;;;;;;;14.92;34.15;96450.93;1776788;80;21163;-55
2021/04/28 05:07:07;;;;;;;13.03;7.62;;;;;;;15.20;33.30;96449.23;1763443;81;21131;-55
2021/04/28 05:09:35;;;;;;;9.68;7.60;;;;;;;15.45;32.68;96442.56;1774602;80;21053;-56
2021/04/28 05:12:04;;;;;;;11.73;7.58;;;;;;;15.67;32.11;96439.75;1784940;80;21507;-55
2021/04/28 05:14:32;;;;;;;11.70;8.03;;;;;;;15.92;31.84;96448.28;1791711;78;22261;-55
2021/04/28 05:16:59;;;;;;;9.78;7.78;;;;;;;16.12;31.83;96449.50;1823064;78;21112;-55
2021/04/28 05:19:28;;;;;;;12.05;7.70;;;;;;;16.32;31.71;96451.02;1817054;78;21140;-55
2021/04/28 05:21:55;;;;;;;;;;;;;;;16.48;31.40;96449.06;1788484;79;21458;-55
2021/04/28 05:24:24;;;;;;;;;;;;;;;16.69;31.20;96444.00;1817751;78;20214;-56
2021/04/28 05:26:57;;;;;;;10.58;7.37;;;;;;;16.78;30.92;96443.61;1820386;78;21364;-55
2021/04/28 05:29:25;;;;;;;9.53;7.58;;;;;;;16.89;30.84;96442.07;1813088;78;21891;-55
2021/04/28 05:31:53;;;;;;;10.85;7.97;;;;;;;17.06;30.64;96443.86;1815388;78;21057;-55
2021/04/28 05:34:21;;;;;;;10.93;8.93;;;;;;;17.38;30.42;96441.12;1815599;79;21572;-55
2021/04/28 05:36:49;;;;;;;13.00;8.95;;;;;;;18.01;29.68;96435.25;1799958;78;21103;-55
2021/04/28 05:39:17;;;;;;;11.97;8.93;;;;;;;18.01;29.68;96435.25;1820028;78;21279;-56
2021/04/28 05:41:44;;;;;;;11.68;9.08;;;;;;;18.26;28.83;96440.58;1790652;79;21100;-56
2021/04/28 05:44:13;;;;;;;11.55;8.23;;;;;;;18.44;28.59;96439.96;1785270;79;21069;-55
2021/04/28 05:46:40;;;;;;;10.65;8.48;;;;;;;18.72;27.96;96443.63;1785870;80;21671;-56
2021/04/28 05:49:08;;;;;;;12.47;8.53;;;;;;;18.51;28.41;96434.88;1785665;80;21565;-55
2021/04/28 05:51:36;;;;;;;9.60;8.43;;;;;;;18.62;28.28;96431.95;1789036;80;21390;-53
2021/04/28 05:54:05;;;;;;;15.98;8.93;;;;;;;18.65;27.70;96434.73;1791263;79;21121;-55
2021/04/28 05:56:33;;;;;;;9.25;8.20;;;;;;;18.45;27.48;96435.02;1794839;78;21089;-57
2021/04/28 05:59:00;;;;;;;9.18;8.10;;;;;;;17.60;28.18;96426.67;1781146;79;21140;-55
2021/04/28 06:01:28;;;;;;;9.88;7.85;;;;;;;16.69;29.36;96430.91;1795076;78;21183;-54
2021/04/28 06:03:55;;;;;;;8.70;7.53;;;;;;;16.13;30.22;96431.50;1808564;78;23464;-54
2021/04/28 06:06:25;;;;;;;12.65;8.30;;;;;;;15.72;30.57;96432.28;1786955;80;21109;-56
2021/04/28 06:08:53;;;;;;;11.35;8.43;;;;;;;14.94;31.65;96432.02;1787759;80;21605;-56
2021/04/28 06:11:21;;;;;;;11.83;8.43;;;;;;;14.35;32.58;96431.97;1787989;80;21576;-56
2021/04/28 06:13:49;;;;;;;12.82;8.10;;;;;;;13.99;34.14;96435.53;1782794;78;21108;-57
2021/04/28 06:16:16;;;;;;;9.80;7.22;;;;;;;14.40;33.57;96429.45;1789600;80;21405;-56
2021/04/28 06:18:45;;;;;;;10.75;7.87;;;;;;;14.31;32.73;96427.18;1787995;80;21097;-56
2021/04/28 06:21:13;;;;;;;9.80;7.70;;;;;;;13.44;34.47;96428.07;1806566;78;21049;-57
2021/04/28 06:23:41;;;;;;;11.38;8.10;;;;;;;12.54;35.47;96429.03;1795969;80;21158;-57
2021/04/28 06:26:09;;;;;;;16.40;8.83;;;;;;;12.14;37.28;96430.45;1817445;77;21120;-58
2021/04/28 06:28:36;;;;;;;11.20;8.13;;;;;;;12.22;37.35;96433.27;1779053;78;21449;-56
2021/04/28 06:31:04;;;;;;;8.30;7.20;;;;;;;11.91;37.70;96416.64;1807454;77;21070;-56
2021/04/28 06:33:32;;;;;;;15.25;9.15;;;;;;;11.55;38.08;96427.17;1808169;77;21163;-56
2021/04/28 06:35:59;;;;;;;12.73;7.40;;;;;;;11.60;39.28;96428.13;1832730;77;21113;-56
2021/04/28 06:38:27;;;;;;;12.65;7.78;;;;;;;11.63;37.68;96432.23;1794927;78;21646;-57
2021/04/28 06:40:54;;;;;;;11.05;8.18;;;;;;;11.24;38.22;96432.11;1769733;78;22337;-57
2021/04/28 06:43:22;;;;;;;9.43;7.12;;;;;;;10.93;39.28;96435.36;1824014;78;21490;-56
2021/04/28 06:45:51;;;;;;;9.20;7.80;;;;;;;10.69;39.84;96442.73;1788415;78;21144;-56
2021/04/28 06:48:19;;;;;;;13.35;7.65;;;;;;;10.33;40.88;96439.27;1808616;77;21173;-56
2021/04/28 06:50:46;;;;;;;13.68;8.48;;;;;;;10.21;41.38;96438.81;1826511;77;21496;-56
2021/04/28 06:53:14;;;;;;;10.00;7.60;;;;;;;10.37;41.51;96434.69;1787309;80;21887;-56
2021/04/28 06:55:41;;;;;;;12.13;8.83;;;;;;;10.46;41.09;96444.38;1823084;77;21160;-56
2021/04/28 06:58:09;;;;;;;12.80;7.78;;;;;;;10.80;40.60;96442.74;1820537;78;21109;-56
2021/04/28 07:00:37;;;;;;;8.73;7.50;;;;;;;11.62;39.92;96439.70;1827912;78;21519;-56
2021/04/28 07:03:05;;;;;;;10.75;7.75;;;;;;;11.81;38.66;96445.58;1828652;77;21089;-56
2021/04/28 07:05:33;;;;;;;10.95;7.60;;;;;;;11.68;39.01;96443.13;1784815;79;23414;-56
2021/04/28 07:08:01;;;;;;;10.65;6.92;;;;;;;11.35;38.76;96450.78;1774956;78;21100;-56
2021/04/28 07:10:30;;;;;;;10.43;7.22;;;;;;;10.99;39.27;96437.51;1793087;79;21575;-56
2021/04/28 07:12:59;;;;;;;8.70;7.10;;;;;;;10.74;39.83;96448.41;1794167;78;21144;-56
2021/04/28 07:15:26;;;;;;;9.33;7.08;;;;;;;10.65;40.91;96445.18;1818051;78;21470;-56
2021/04/28 07:17:56;;;;;;;11.80;7.25;;;;;;;10.60;40.75;96431.72;1817871;78;21359;-56
2021/04/28 07:20:23;;;;;;;9.98;7.60;;;;;;;10.66;40.88;96445.55;1792330;79;21136;-56
2021/04/28 07:22:52;;;;;;;9.08;7.42;;;;;;;10.93;40.51;96440.55;1827881;78;21108;-56
2021/04/28 07:25:20;;;;;;;;;;;;;;;11.12;39.74;96445.18;1803193;79;21197;-56
2021/04/28 07:27:47;;;;;;;14.30;7.72;;;;;;;11.27;40.17;96436.25;1785150;78;20269;-56
2021/04/28 07:30:17;;;;;;;11.00;7.42;;;;;;;11.52;39.36;96449.48;1824339;78;21314;-56
2021/04/28 07:32:44;;;;;;;;;;;;;;;11.50;39.23;96442.77;1834281;77;21065;-56
2021/04/28 07:35:14;;;;;;;13.30;8.03;;;;;;;11.58;39.54;96448.20;1814165;78;20215;-56
2021/04/28 07:37:42;;;;;;;10.85;7.72;;;;;;;11.92;38.92;96449.05;1796144;80;21058;-55
2021/04/28 07:40:11;;;;;;;17.25;7.67;;;;;;;11.88;39.80;96434.59;1814268;78;21128;-55
2021/04/28 07:42:38;;;;;;;7.90;7.10;;;;;;;12.31;39.04;96457.23;1810494;79;22283;-55
2021/04/28 07:45:08;;;;;;;10.43;7.20;;;;;;;12.64;37.52;96453.36;1818693;78;21089;-55
2021/04/28 07:47:35;;;;;;;9.33;6.65;;;;;;;12.45;37.52;96450.95;1826523;78;21404;-56
2021/04/28 07:50:06;;;;;;;11.35;7.20;;;;;;;12.31;37.93;96446.83;1830244;77;21049;-55
2021/04/28 07:52:34;;;;;;;12.05;7.15;;;;;;;12.04;38.12;96456.81;1757854;81;21086;-55
2021/04/28 07:55:02;;;;;;;10.82;7.00;;;;;;;11.51;38.86;96445.70;1784506;79;21371;-55
2021/04/28 07:57:29;;;;;;;12.13;6.95;;;;;;;11.04;41.05;96449.19;1813190;78;21140;-55
2021/04/28 07:59:58;;;;;;;10.28;7.53;;;;;;;10.80;40.95;96444.04;1800239;78;21144;-56
2021/04/28 08:02:25;;;;;;;9.13;6.83;;;;;;;10.72;40.80;96448.15;1775194;78;21482;-55
2021/04/28 08:04:53;;;;;;;9.20;6.97;;;;;;;10.59;41.55;96442.58;1791324;78;21110;-56
2021/04/28 08:07:22;;;;;;;9.85;7.03;;;;;;;10.57;42.30;96441.84;1789973;80;21327;-56
2021/04/28 08:09:50;;;;;;;11.08;6.95;;;;;;;10.91;41.64;96433.36;1820788;77;21093;-55
2021/04/28 08:12:18;;;;;;;9.38;6.30;;;;;;;11.42;41.55;96425.98;1800514;78;21179;-55
2021/04/28 08:14:45;;;;;;;10.60;6.12;;;;;;;11.72;39.56;96434.95;1824531;78;21041;-56
2021/04/28 08:17:13;;;;;;;8.95;6.05;;;;;;;11.60;39.98;96433.32;1757385;81;21150;-57
2021/04/28 08:19:41;;;;;;;8.15;6.55;;;;;;;11.41;39.16;96437.34;1784877;78;21224;-54
2021/04/28 08:22:10;;;;;;;9.00;6.58;;;;;;;10.92;39.60;96437.14;1818026;79;21125;-56
2021/04/28 08:24:38;;;;;;;8.80;6.67;;;;;;;10.53;41.24;96434.41;1812105;78;21179;-54
2021/04/28 08:27:07;;;;;;;9.58;6.28;;;;;;;10.64;40.92;96437.02;1813001;78;21636;-57
2021/04/28 08:29:35;;;;;;;10.38;7.08;;;;;;;10.83;41.00;96436.03;1813217;78;21061;-56
2021/04/28 08:32:03;;;;;;;8.18;5.95;;;;;;;10.93;40.39;96435.36;1811542;79;21197;-57
2021/04/28 08:34:32;;;;;;;12.23;6.85;;;;;;;10.91;40.29;96421.67;1838881;77;21057;-56
2021/04/28 08:37:00;;;;;;;9.83;6.45;;;;;;;10.99;41.76;96424.05;1821618;78;21145;-57
2021/04/28 08:39:28;;;;;;;7.20;5.90;;;;;;;11.46;39.55;96425.75;1820915;78;21184;-57
2021/04/28 08:41:55;;;;;;;6.45;5.53;;;;;;;11.59;39.21;96419.96;1768430;78;21073;-57
2021/04/28 08:44:24;;;;;;;6.47;5.58;;;;;;;11.66;39.71;96421.16;1809071;78;21606;-57
2021/04/28 08:46:52;;;;;;;8.70;6.03;;;;;;;11.59;39.28;96413.02;1790123;80;21066;-56
2021/04/28 08:49:19;;;;;;;8.43;5.67;;;;;;;11.57;40.64;96420.08;1794474;77;21138;-57
2021/04/28 08:51:47;;;;;;;21.62;6.53;;;;;;;11.93;39.58;96403.07;1816735;79;21041;-56
2021/04/28 08:54:15;;;;;;;10.58;5.25;;;;;;;12.20;38.10;96420.02;1768435;80;21496;-57
2021/04/28 08:56:51;;;;;;;8.50;5.90;;;;;;;11.96;38.58;96415.83;1803816;78;21398;-56
2021/04/28 08:59:19;;;;;;;6.97;5.20;;;;;;;11.82;38.30;96410.86;1803102;79;21146;-55
2021/04/28 09:01:49;;;;;;;5.65;4.85;;;;;;;11.85;37.73;96415.81;1812906;78;21560;-56
2021/04/28 09:04:24;;;;;;;8.20;5.17;;;;;;;11.94;36.99;96413.35;1797819;79;21043;-56
2021/04/28 09:06:51;;;;;;;6.87;4.53;;;;;;;12.04;38.09;96399.60;1815383;79;21117;-55
2021/04/28 09:09:20;;;;;;;12.03;4.97;;;;;;;12.41;37.62;96402.69;1811636;78;21445;-56
2021/04/28 09:11:52;;;;;;;26.62;6.72;;;;;;;12.66;37.83;96386.38;1782476;79;21134;-56
2021/04/28 09:14:28;;;;;;;14.45;6.10;;;;;;;12.87;36.09;96392.89;1763038;78;21064;-56
2021/04/28 09:17:01;;;;;;;8.38;4.78;;;;;;;12.91;36.43;96391.70;1743307;78;21208;-56
2021/04/28 09:20:24;;;;;;;7.22;4.40;;;;;;;13.12;37.08;96383.03;1779774;78;28211;-57
2021/04/28 09:23:13;;;;;;;9.10;4.75;;;;;;;13.32;36.89;96390.45;1773639;79;21135;-56
2021/04/28 09:25:54;;;;;;;9.05;4.75;;;;;;;13.31;35.54;96388.34;1785437;78;28172;-56
2021/04/28 09:28:37;;;;;;;16.57;5.62;;;;;;;13.03;36.59;96383.33;1727402;81;21066;-56
2021/04/28 09:31:12;;;;;;;6.35;4.50;;;;;;;13.28;36.65;96383.88;1712387;83;21503;-57
2021/04/28 09:33:56;;;;;;;5.53;4.60;;;;;;;13.37;35.25;96390.92;1718806;82;21203;-56
2021/04/28 09:43:38;;;;;;;15.93;5.45;;;;;;;12.80;37.03;96384.77;1780976;78;21242;-56
2021/04/28 09:46:06;;;;;;;6.58;5.10;;;;;;;12.80;38.00;96354.01;1769286;79;22290;-57
2021/04/28 09:48:39;;;;;;;6.22;4.80;;;;;;;12.76;37.06;96364.31;1707598;79;21187;-57
2021/04/28 09:51:07;;;;;;;10.98;5.08;;;;;;;12.60;37.43;96369.50;1771317;79;21124;-56
2021/04/28 09:53:36;;;;;;;7.05;5.55;;;;;;;12.50;37.64;96358.20;1770315;78;21105;-57
2021/04/28 09:56:08;;;;;;;7.33;4.87;;;;;;;12.52;38.40;96368.00;1767746;78;21058;-57
2021/04/28 09:58:52;;;;;;;9.05;5.10;;;;;;;12.57;38.29;96357.22;1786595;79;22289;-57
2021/04/28 10:01:36;;;;;;;6.90;4.90;;;;;;;12.75;39.75;96346.58;1717162;81;21147;-56
2021/04/28 10:04:05;;;;;;;7.58;4.60;;;;;;;13.17;37.39;96331.36;1786049;79;21142;-57
2021/04/28 10:06:49;;;;;;;6.70;5.05;;;;;;;13.17;36.06;96337.88;1777524;79;21115;-57
2021/04/28 10:09:36;;;;;;;38.98;7.28;;;;;;;12.92;36.75;96346.46;1778286;79;21084;-58
2021/04/28 10:12:07;;;;;;;12.98;5.55;;;;;;;12.70;37.75;96349.55;1761006;79;21678;-57
2021/04/28 10:14:37;;;;;;;13.30;5.65;;;;;;;12.59;38.07;96339.20;1774824;79;21600;-58
2021/04/28 10:17:06;;;;;;;8.18;5.50;;;;;;;12.66;38.61;96340.36;1768081;79;21237;-57
2021/04/28 10:19:37;;;;;;;6.45;5.30;;;;;;;12.67;37.42;96344.59;1778841;79;21647;-57
2021/04/28 10:22:08;;;;;;;8.73;5.67;;;;;;;12.52;37.91;96339.38;1767456;79;21687;-58
2021/04/28 10:24:38;;;;;;;9.33;6.45;;;;;;;12.50;37.08;96332.99;1770214;79;21264;-58
2021/04/28 10:27:12;;;;;;;13.80;7.47;;;;;;;12.43;39.34;96338.81;1759122;80;21084;-58
2021/04/28 10:29:39;;;;;;;8.73;7.03;;;;;;;12.42;38.89;96330.19;1764955;79;21058;-58
2021/04/28 10:32:08;;;;;;;11.95;7.33;;;;;;;12.39;39.68;96325.72;1783290;79;21169;-57
2021/04/28 10:34:41;;;;;;;6.53;5.00;;;;;;;12.43;39.57;96331.83;1760348;79;21188;-58
2021/04/28 10:37:08;;;;;;;8.20;4.62;;;;;;;12.42;39.11;96333.28;1778226;79;21662;-58
2021/04/28 10:39:37;;;;;;;7.80;4.92;;;;;;;12.47;37.05;96325.92;1764528;80;21125;-56
2021/04/28 10:42:30;;;;;;;8.15;5.60;;;;;;;12.47;38.21;96333.24;1762458;80;21117;-56
2021/04/28 10:44:58;;;;;;;9.68;5.87;;;;;;;12.43;38.41;96346.14;1768987;80;21197;-56
2021/04/28 10:47:38;;;;;;;6.73;5.70;;;;;;;12.37;39.49;96325.84;1752735;80;21106;-56
2021/04/28 10:50:25;;;;;;;24.05;6.92;;;;;;;12.42;39.74;96333.28;1733850;80;21211;-57
2021/04/28 10:53:01;;;;;;;9.50;6.20;;;;;;;12.37;39.73;96319.80;1744453;80;21624;-57
2021/04/28 10:55:59;;;;;;;13.30;6.35;;;;;;;12.49;40.12;96324.01;1741454;80;21623;-56
2021/04/28 10:58:41;;;;;;;8.75;6.47;;;;;;;12.72;40.32;96322.58;1751348;80;21560;-57
2021/04/28 11:01:14;;;;;;;7.37;5.72;;;;;;;12.73;40.29;96319.01;1765672;80;21081;-56
2021/04/28 11:03:51;;;;;;;12.10;5.20;;;;;;;12.47;40.63;96315.02;1766343;80;21149;-56
2021/04/28 11:06:28;;;;;;;6.58;4.62;;;;;;;12.24;39.96;96312.20;1753295;80;21649;-56
2021/04/28 11:09:04;;;;;;;6.10;4.90;;;;;;;12.25;39.82;96309.92;1674309;83;21323;-56
2021/04/28 11:11:38;;;;;;;7.47;4.80;;;;;;;12.34;40.35;96306.58;1711997;82;21204;-56
2021/04/28 11:16:50;;;;;;;17.07;5.65;;;;;;;12.32;41.65;96312.39;1759079;80;21408;-56
2021/04/28 11:19:26;;;;;;;7.03;5.80;;;;;;;12.47;40.54;96316.81;1757077;80;21176;-57
2021/04/28 11:22:14;;;;;;;7.22;4.72;;;;;;;12.55;41.14;96301.84;1757849;80;21240;-58
2021/04/28 11:25:13;;;;;;;13.08;5.58;;;;;;;12.60;41.09;96316.59;1737195;80;21175;-57
2021/04/28 11:28:00;;;;;;;20.15;6.00;;;;;;;12.56;41.04;96305.63;1692421;83;21086;-56
2021/04/28 11:30:41;;;;;;;8.13;4.80;;;;;;;12.62;41.55;96299.91;1755782;80;21363;-57
2021/04/28 11:33:28;;;;;;;21.62;5.97;;;;;;;12.87;41.04;96304.36;1746763;80;21555;-56
2021/04/28 11:36:06;;;;;;;8.15;5.00;;;;;;;12.92;42.96;96303.49;1748194;80;21113;-57
2021/04/28 11:38:38;;;;;;;6.37;4.80;;;;;;;12.93;40.96;96295.20;1687068;83;21582;-56
2021/04/28 11:41:14;;;;;;;7.62;4.65;;;;;;;12.85;41.44;96298.47;1720632;81;21149;-58
2021/04/28 11:43:57;;;;;;;9.40;5.25;;;;;;;12.72;42.31;96303.87;1754860;80;21353;-57
2021/04/28 11:46:28;;;;;;;6.03;4.70;;;;;;;12.69;42.07;96303.64;1774882;80;21181;-56
2021/04/28 11:48:58;;;;;;;5.00;4.25;;;;;;;12.64;41.35;96292.80;1763212;80;21112;-57
2021/04/28 11:51:30;;;;;;;5.35;4.28;;;;;;;12.65;42.85;96293.64;1760868;80;21145;-57
2021/04/28 11:54:03;;;;;;;6.30;4.72;;;;;;;12.72;41.69;96281.75;1754002;80;21652;-57
2021/04/28 11:56:38;;;;;;;5.08;4.30;;;;;;;12.59;42.46;96278.53;1749409;80;21208;-57
2021/04/28 11:59:07;;;;;;;17.23;5.78;;;;;;;12.52;42.76;96282.12;1734750;80;21217;-58